Josephine Anne — WDD9858 — position and weather

sailwx.info

Track history (hours):
 
Tides and Currents Weather Stations Pressure Air Temp Water Temp Dewpoint Dewpoint Depression Visibility Wind Speed Wind Dir Waves Ship Positions

Josephine Anne

Owner: E.N. Bisso & Son, Inc., New Orleans, LA. More information available from US FCC via Universal Licensing System and Coast Guard Vessel Documentation Center.

Last reported at 2016-May-02 22:33 UTC. Time now 2016-May-02 23:12 UTC.
Position N 29°55' W 090°04'.

Length 29 m; draft 4.3 m.

Type: Tug. MMSI: 367317270.

Date/timePositionNaut miles runAvg speedWind from/ knotsBaromVisibWave heightAir tempDewpointWater temp
2016-May-02 22:33N 29°55' W 090°04'0 0.0
2016-May-02 21:33N 29°55' W 090°04'3 0.8
2016-May-02 17:24N 29°56' W 089°60'1 0.7
2016-May-02 16:33N 29°56' W 089°59'0 0.0
2016-May-02 15:32N 29°56' W 089°59'1 0.6
2016-May-02 14:33N 29°56' W 089°59'1 1.2
2016-May-02 13:33N 29°56' W 089°60'3 2.8
2016-May-02 12:33N 29°55' W 089°57'3 0.2
2016-May-01 22:06N 29°54' W 089°54'3 4.6
2016-May-01 21:33N 29°52' W 089°57'0 0.0
2016-May-01 20:33N 29°52' W 089°57'0 0.0
2016-May-01 19:33N 29°52' W 089°57'0 0.0
2016-May-01 18:33N 29°52' W 089°57'7 7.4
2016-May-01 17:33N 29°57' W 090°03'5 0.2
2016-Apr-30 20:04N 29°57' W 090°09'3 6.5
2016-Apr-30 19:33N 29°55' W 090°06'2 1.8
2016-Apr-30 18:33N 29°55' W 090°04'0 0.0
2016-Apr-30 17:33N 29°55' W 090°04'0 0.0
2016-Apr-30 16:33N 29°55' W 090°04'0 0.0
2016-Apr-30 15:33N 29°55' W 090°04'0 0.0
2016-Apr-30 14:33N 29°55' W 090°04'0 0.0
2016-Apr-30 13:33N 29°55' W 090°04'0 0.0
2016-Apr-30 12:33N 29°55' W 090°04'0 0.0
2016-Apr-30 11:33N 29°55' W 090°04'0 0.0
2016-Apr-30 10:33N 29°55' W 090°04'0 0.0
2016-Apr-30 09:33N 29°55' W 090°04'0 0.0
2016-Apr-30 08:33N 29°55' W 090°04'0 0.0
2016-Apr-30 07:33N 29°55' W 090°04'0 0.0
2016-Apr-30 06:33N 29°55' W 090°04'0 0.0
2016-Apr-30 05:33N 29°55' W 090°04'0 0.0
2016-Apr-30 04:33N 29°55' W 090°04'0 0.0
2016-Apr-30 03:33N 29°55' W 090°04'1 1.0
2016-Apr-30 02:33N 29°56' W 090°03'4 1.1
2016-Apr-29 22:33N 29°55' W 090°08'0 0.5
2016-Apr-29 21:33N 29°55' W 090°08'0 0.0
2016-Apr-29 20:33N 29°55' W 090°08'0 0.0
2016-Apr-29 19:33N 29°56' W 090°08'0 0.0
2016-Apr-29 18:33N 29°56' W 090°08'0 0.0
2016-Apr-29 17:33N 29°56' W 090°08'0 0.0
2016-Apr-29 16:32N 29°56' W 090°08'  
2016-Apr-24 22:34N 29°57' W 090°09'1 0.0
2016-Apr-24 04:33N 29°57' W 090°08'1 1.2
2016-Apr-24 03:33N 29°55' W 090°08'0 0.0
2016-Apr-24 02:34N 29°55' W 090°08'0 0.0
2016-Apr-24 01:34N 29°55' W 090°08'0 0.0
2016-Apr-24 00:33N 29°55' W 090°08'0 0.0
2016-Apr-23 23:33N 29°55' W 090°08'0 0.0
2016-Apr-23 22:33N 29°55' W 090°08'0 0.0
2016-Apr-23 21:33N 29°55' W 090°08'0 0.0
2016-Apr-23 20:33N 29°55' W 090°08'0 0.0
2016-Apr-23 19:33N 29°55' W 090°08'4 3.9
2016-Apr-23 18:33N 29°55' W 090°04'1 0.8
2016-Apr-23 17:33N 29°55' W 090°04'3 0.8
2016-Apr-23 13:27N 29°56' W 090°08'0 0.2
2016-Apr-23 12:33N 29°55' W 090°08'0 0.1
2016-Apr-23 11:05N 29°55' W 090°08'1 0.6
2016-Apr-23 09:28N 29°56' W 090°09'1 1.1
2016-Apr-23 08:33N 29°55' W 090°08'0 0.0
2016-Apr-23 07:34N 29°55' W 090°08'0 0.0
2016-Apr-23 06:34N 29°55' W 090°08'0 0.0
2016-Apr-23 05:33N 29°55' W 090°08'0 0.0
2016-Apr-23 04:33N 29°55' W 090°08'0 0.0
2016-Apr-23 03:33N 29°55' W 090°08'0 0.0
2016-Apr-23 02:33N 29°55' W 090°08'1 0.9
2016-Apr-23 01:33N 29°55' W 090°08'3 2.8
2016-Apr-23 00:34N 29°55' W 090°04'0 0.4
2016-Apr-22 23:34N 29°55' W 090°04'  
Track history (hours):
 
Tides and Currents Weather Stations Pressure Air Temp Water Temp Dewpoint Dewpoint Depression Visibility Wind Speed Wind Dir Waves Ship Positions

Josephine Anne

Owner: E.N. Bisso & Son, Inc., New Orleans, LA. More information available from US FCC via Universal Licensing System and Coast Guard Vessel Documentation Center.

Last reported at 2016-May-02 22:33 UTC. Time now 2016-May-02 23:12 UTC.
Position N 29°55' W 090°04'.

Length 29 m; draft 4.3 m.

Type: Tug. MMSI: 367317270.

Date/timePositionNaut miles runAvg speedWind from/ knotsBaromVisibWave heightAir tempDewpointWater temp
2016-May-02 22:33N 29°55' W 090°04'0 0.0
2016-May-02 21:33N 29°55' W 090°04'3 0.8
2016-May-02 17:24N 29°56' W 089°60'1 0.7
2016-May-02 16:33N 29°56' W 089°59'0 0.0
2016-May-02 15:32N 29°56' W 089°59'1 0.6
2016-May-02 14:33N 29°56' W 089°59'1 1.2
2016-May-02 13:33N 29°56' W 089°60'3 2.8
2016-May-02 12:33N 29°55' W 089°57'3 0.2
2016-May-01 22:06N 29°54' W 089°54'3 4.6
2016-May-01 21:33N 29°52' W 089°57'0 0.0
2016-May-01 20:33N 29°52' W 089°57'0 0.0
2016-May-01 19:33N 29°52' W 089°57'0 0.0
2016-May-01 18:33N 29°52' W 089°57'7 7.4
2016-May-01 17:33N 29°57' W 090°03'5 0.2
2016-Apr-30 20:04N 29°57' W 090°09'3 6.5
2016-Apr-30 19:33N 29°55' W 090°06'2 1.8
2016-Apr-30 18:33N 29°55' W 090°04'0 0.0
2016-Apr-30 17:33N 29°55' W 090°04'0 0.0
2016-Apr-30 16:33N 29°55' W 090°04'0 0.0
2016-Apr-30 15:33N 29°55' W 090°04'0 0.0
2016-Apr-30 14:33N 29°55' W 090°04'0 0.0
2016-Apr-30 13:33N 29°55' W 090°04'0 0.0
2016-Apr-30 12:33N 29°55' W 090°04'0 0.0
2016-Apr-30 11:33N 29°55' W 090°04'0 0.0
2016-Apr-30 10:33N 29°55' W 090°04'0 0.0
2016-Apr-30 09:33N 29°55' W 090°04'0 0.0
2016-Apr-30 08:33N 29°55' W 090°04'0 0.0
2016-Apr-30 07:33N 29°55' W 090°04'0 0.0
2016-Apr-30 06:33N 29°55' W 090°04'0 0.0
2016-Apr-30 05:33N 29°55' W 090°04'0 0.0
2016-Apr-30 04:33N 29°55' W 090°04'0 0.0
2016-Apr-30 03:33N 29°55' W 090°04'1 1.0
2016-Apr-30 02:33N 29°56' W 090°03'4 1.1
2016-Apr-29 22:33N 29°55' W 090°08'0 0.5
2016-Apr-29 21:33N 29°55' W 090°08'0 0.0
2016-Apr-29 20:33N 29°55' W 090°08'0 0.0
2016-Apr-29 19:33N 29°56' W 090°08'0 0.0
2016-Apr-29 18:33N 29°56' W 090°08'0 0.0
2016-Apr-29 17:33N 29°56' W 090°08'0 0.0
2016-Apr-29 16:32N 29°56' W 090°08'  
2016-Apr-24 22:34N 29°57' W 090°09'1 0.0
2016-Apr-24 04:33N 29°57' W 090°08'1 1.2
2016-Apr-24 03:33N 29°55' W 090°08'0 0.0
2016-Apr-24 02:34N 29°55' W 090°08'0 0.0
2016-Apr-24 01:34N 29°55' W 090°08'0 0.0
2016-Apr-24 00:33N 29°55' W 090°08'0 0.0
2016-Apr-23 23:33N 29°55' W 090°08'0 0.0
2016-Apr-23 22:33N 29°55' W 090°08'0 0.0
2016-Apr-23 21:33N 29°55' W 090°08'0 0.0
2016-Apr-23 20:33N 29°55' W 090°08'0 0.0
2016-Apr-23 19:33N 29°55' W 090°08'4 3.9
2016-Apr-23 18:33N 29°55' W 090°04'1 0.8
2016-Apr-23 17:33N 29°55' W 090°04'3 0.8
2016-Apr-23 13:27N 29°56' W 090°08'0 0.2
2016-Apr-23 12:33N 29°55' W 090°08'0 0.1
2016-Apr-23 11:05N 29°55' W 090°08'1 0.6
2016-Apr-23 09:28N 29°56' W 090°09'1 1.1
2016-Apr-23 08:33N 29°55' W 090°08'0 0.0
2016-Apr-23 07:34N 29°55' W 090°08'0 0.0
2016-Apr-23 06:34N 29°55' W 090°08'0 0.0
2016-Apr-23 05:33N 29°55' W 090°08'0 0.0
2016-Apr-23 04:33N 29°55' W 090°08'0 0.0
2016-Apr-23 03:33N 29°55' W 090°08'0 0.0
2016-Apr-23 02:33N 29°55' W 090°08'1 0.9
2016-Apr-23 01:33N 29°55' W 090°08'3 2.8
2016-Apr-23 00:34N 29°55' W 090°04'0 0.4
2016-Apr-22 23:34N 29°55' W 090°04'  

Dump ship's entire track history